createdAt,value
2022-10-26T00:00:48.458Z,9.00
2022-10-26T00:02:51.582Z,9.00
2022-10-26T00:04:54.708Z,9.10
2022-10-26T00:06:57.975Z,9.10
2022-10-26T00:09:00.624Z,9.10
2022-10-26T00:11:05.363Z,9.10
2022-10-26T00:13:12.034Z,9.10
2022-10-26T00:15:14.736Z,9.10
2022-10-26T00:17:18.196Z,9.10
2022-10-26T00:19:21.047Z,9.10
2022-10-26T00:21:24.200Z,9.20
2022-10-26T00:23:26.844Z,9.20
2022-10-26T00:25:29.728Z,9.20
2022-10-26T00:27:35.197Z,9.20
2022-10-26T00:29:41.465Z,9.20
2022-10-26T00:31:44.188Z,9.30
2022-10-26T00:33:47.592Z,9.30
2022-10-26T00:35:54.546Z,9.30
2022-10-26T00:37:57.460Z,9.30
2022-10-26T00:40:00.151Z,9.30
2022-10-26T00:42:03.338Z,9.40
2022-10-26T00:44:56.347Z,9.40
2022-10-26T00:46:59.654Z,9.50
2022-10-26T00:49:05.813Z,9.50
2022-10-26T00:51:12.058Z,9.50
2022-10-26T00:53:14.846Z,9.50
2022-10-26T00:55:21.191Z,9.50
2022-10-26T00:57:24.749Z,9.50
2022-10-26T00:59:27.602Z,9.60
2022-10-26T01:01:35.297Z,9.60
2022-10-26T01:03:39.023Z,9.60
2022-10-26T01:05:43.995Z,9.60
2022-10-26T01:07:48.865Z,9.60
2022-10-26T01:09:52.424Z,9.60
2022-10-26T01:11:55.100Z,9.60
2022-10-26T01:13:59.608Z,9.60
2022-10-26T01:16:15.211Z,9.60
2022-10-26T01:18:27.172Z,9.60
2022-10-26T01:20:48.855Z,9.60
2022-10-26T01:22:57.889Z,9.60
2022-10-26T01:25:09.387Z,9.70
2022-10-26T01:27:29.274Z,9.70
2022-10-26T01:30:09.237Z,9.70
2022-10-26T01:32:18.934Z,9.70
2022-10-26T01:34:26.018Z,9.70
2022-10-26T01:36:36.166Z,9.80
2022-10-26T01:38:48.511Z,9.80
2022-10-26T01:40:55.668Z,9.80
2022-10-26T01:43:01.796Z,9.80
2022-10-26T01:45:08.057Z,9.80
2022-10-26T01:47:15.143Z,9.80
2022-10-26T01:49:22.859Z,9.80
2022-10-26T01:51:27.678Z,9.80
2022-10-26T01:53:31.019Z,9.80
2022-10-26T01:55:49.759Z,9.80
2022-10-26T01:57:53.472Z,9.80
2022-10-26T02:00:05.598Z,9.80
2022-10-26T02:02:30.563Z,9.80
2022-10-26T02:04:50.484Z,9.80
2022-10-26T02:07:03.333Z,9.80
2022-10-26T02:09:12.543Z,9.80
2022-10-26T02:11:25.494Z,9.80
2022-10-26T02:13:34.602Z,9.80
2022-10-26T02:15:47.103Z,9.90
2022-10-26T02:17:55.531Z,9.80
2022-10-26T02:20:04.643Z,9.90
2022-10-26T02:22:13.779Z,9.90
2022-10-26T02:24:18.156Z,9.90
2022-10-26T02:26:24.455Z,9.90
2022-10-26T02:28:32.015Z,9.90
2022-10-26T02:30:36.819Z,9.90
2022-10-26T02:32:43.765Z,9.90
2022-10-26T02:34:47.948Z,9.90
2022-10-26T02:36:54.707Z,9.90
2022-10-26T02:38:59.380Z,10.00
2022-10-26T02:41:03.664Z,10.00
2022-10-26T02:43:09.418Z,10.00
2022-10-26T02:45:16.459Z,10.00
2022-10-26T02:47:20.262Z,10.00
2022-10-26T02:49:23.460Z,10.00
2022-10-26T02:51:35.561Z,9.90
2022-10-26T02:53:46.990Z,9.90
2022-10-26T02:55:52.002Z,10.00
2022-10-26T02:57:59.723Z,10.00
2022-10-26T03:00:03.727Z,10.00
2022-10-26T03:02:06.856Z,10.00
2022-10-26T03:04:09.710Z,10.00
2022-10-26T03:06:12.486Z,10.00
2022-10-26T03:08:15.442Z,10.00
2022-10-26T03:10:20.415Z,10.00
2022-10-26T03:12:23.656Z,10.00
2022-10-26T03:14:26.414Z,10.00
2022-10-26T03:16:29.288Z,10.10
2022-10-26T03:18:32.029Z,10.10
2022-10-26T03:20:34.907Z,10.10
2022-10-26T03:22:37.792Z,10.10
2022-10-26T03:24:40.686Z,10.10
2022-10-26T03:26:44.705Z,10.10
2022-10-26T03:28:47.439Z,10.10
2022-10-26T03:30:50.435Z,10.10
2022-10-26T03:32:53.122Z,10.10
2022-10-26T03:34:55.992Z,10.10
2022-10-26T03:36:59.026Z,10.10
2022-10-26T03:39:02.307Z,10.10
2022-10-26T03:41:05.224Z,10.10
2022-10-26T03:43:09.260Z,10.10
2022-10-26T03:45:12.166Z,10.10
2022-10-26T03:47:16.359Z,10.10
2022-10-26T03:49:19.057Z,10.10
2022-10-26T03:51:22.051Z,10.10
2022-10-26T03:53:24.757Z,10.10
2022-10-26T03:55:27.516Z,10.20
2022-10-26T03:57:30.368Z,10.20
2022-10-26T03:59:34.658Z,10.20
2022-10-26T04:01:37.937Z,10.20
2022-10-26T04:03:40.857Z,10.20
2022-10-26T04:05:43.550Z,10.30
2022-10-26T04:07:52.433Z,10.30
2022-10-26T04:09:55.108Z,10.30
2022-10-26T04:11:58.009Z,10.30
2022-10-26T04:14:01.125Z,10.40
2022-10-26T04:16:05.576Z,10.30
2022-10-26T04:18:09.688Z,10.40
2022-10-26T04:20:12.922Z,10.40
2022-10-26T04:22:16.156Z,10.40
2022-10-26T04:24:19.070Z,10.40
2022-10-26T04:26:21.760Z,10.40
2022-10-26T04:28:24.630Z,10.40
2022-10-26T04:30:27.834Z,10.40
2022-10-26T04:32:32.278Z,10.40
2022-10-26T04:34:35.195Z,10.40
2022-10-26T04:36:38.126Z,10.40
2022-10-26T04:38:40.815Z,10.40
2022-10-26T04:40:43.773Z,10.40
2022-10-26T04:42:48.455Z,10.30
2022-10-26T04:44:51.734Z,10.30
2022-10-26T04:46:54.810Z,10.40
2022-10-26T04:48:58.823Z,10.40
2022-10-26T04:51:02.133Z,10.30
2022-10-26T04:53:05.605Z,10.40
2022-10-26T04:55:09.267Z,10.30
2022-10-26T04:57:12.004Z,10.30
2022-10-26T04:59:14.760Z,10.30
2022-10-26T05:01:17.739Z,10.30
2022-10-26T05:03:20.861Z,10.20
2022-10-26T05:05:25.163Z,10.20
2022-10-26T05:07:27.859Z,10.20
2022-10-26T05:09:30.964Z,10.20
2022-10-26T05:11:33.634Z,10.20
2022-10-26T05:13:36.390Z,10.20
2022-10-26T05:15:39.132Z,10.20
2022-10-26T05:17:41.927Z,10.20
2022-10-26T05:19:44.579Z,10.10
2022-10-26T05:21:48.642Z,10.10
2022-10-26T05:23:52.396Z,10.10
2022-10-26T05:25:56.486Z,10.10
2022-10-26T05:28:00.138Z,10.10
2022-10-26T05:30:02.880Z,10.10
2022-10-26T05:32:05.924Z,10.10
2022-10-26T05:34:08.927Z,10.10
2022-10-26T05:36:11.630Z,10.10
2022-10-26T05:38:17.384Z,10.10
2022-10-26T05:40:20.556Z,10.10
2022-10-26T05:42:23.326Z,10.20
2022-10-26T05:44:26.056Z,10.20
2022-10-26T05:46:29.163Z,10.20
2022-10-26T05:48:32.075Z,10.30
2022-10-26T05:50:34.856Z,10.30
2022-10-26T05:52:40.529Z,10.30
2022-10-26T05:54:44.943Z,10.30
2022-10-26T05:56:48.284Z,10.30
2022-10-26T05:58:51.786Z,10.30
2022-10-26T06:01:07.694Z,10.30
2022-10-26T06:03:23.685Z,10.30
2022-10-26T06:05:29.945Z,10.30
2022-10-26T06:07:34.252Z,10.30
2022-10-26T06:09:37.509Z,10.30
2022-10-26T06:11:42.332Z,10.30
2022-10-26T06:13:48.081Z,10.30
2022-10-26T06:16:02.454Z,10.40
2022-10-26T06:18:14.764Z,10.40
2022-10-26T06:20:45.639Z,10.40
2022-10-26T06:22:59.216Z,10.50
2022-10-26T06:25:08.905Z,10.50
2022-10-26T06:27:24.155Z,10.50
2022-10-26T06:29:38.293Z,10.60
2022-10-26T06:31:41.041Z,10.60
2022-10-26T06:33:43.765Z,10.60
2022-10-26T06:35:54.540Z,10.70
2022-10-26T06:38:00.031Z,10.70
2022-10-26T06:40:03.922Z,10.80
2022-10-26T06:42:07.583Z,10.80
2022-10-26T06:44:20.469Z,10.80
2022-10-26T06:46:33.040Z,10.80
2022-10-26T06:48:46.073Z,10.80
2022-10-26T06:50:52.296Z,10.80
2022-10-26T06:53:05.066Z,10.80
2022-10-26T06:55:15.369Z,10.80
2022-10-26T06:57:19.907Z,10.80
2022-10-26T06:59:33.587Z,10.90
2022-10-26T07:01:36.438Z,10.90
2022-10-26T07:03:39.295Z,10.90
2022-10-26T07:05:42.440Z,11.00
2022-10-26T07:07:47.367Z,11.00
2022-10-26T07:09:50.970Z,11.10
2022-10-26T07:11:54.026Z,11.10
2022-10-26T07:13:57.136Z,11.20
2022-10-26T07:16:01.828Z,11.20
2022-10-26T07:18:06.765Z,11.30
2022-10-26T07:20:10.384Z,11.30
2022-10-26T07:22:13.361Z,11.30
2022-10-26T07:24:16.145Z,11.40
2022-10-26T07:26:18.831Z,11.40
2022-10-26T07:28:21.642Z,11.50
2022-10-26T07:30:24.403Z,11.50
2022-10-26T07:32:28.567Z,11.50
2022-10-26T07:34:31.472Z,11.60
2022-10-26T07:36:36.730Z,11.70
2022-10-26T07:38:39.743Z,11.80
2022-10-26T07:40:42.614Z,11.80
2022-10-26T07:42:47.668Z,11.90
2022-10-26T07:44:50.965Z,12.00
2022-10-26T07:46:53.684Z,12.00
2022-10-26T07:48:57.751Z,12.10
2022-10-26T07:51:03.322Z,12.10
2022-10-26T07:53:06.104Z,12.20
2022-10-26T07:55:10.247Z,12.20
2022-10-26T07:57:13.068Z,12.30
2022-10-26T07:59:17.009Z,12.30
2022-10-26T08:01:20.269Z,12.30
2022-10-26T08:03:23.700Z,12.30
2022-10-26T08:05:27.905Z,12.30
2022-10-26T08:07:30.694Z,12.40
2022-10-26T08:09:33.405Z,12.40
2022-10-26T08:11:37.003Z,12.50
2022-10-26T08:13:39.852Z,12.50
2022-10-26T08:15:42.952Z,12.60
2022-10-26T08:17:45.696Z,12.60
2022-10-26T08:19:49.669Z,12.60
2022-10-26T08:21:53.769Z,12.60
2022-10-26T08:23:56.490Z,12.60
2022-10-26T08:26:00.847Z,12.60
2022-10-26T08:28:04.202Z,12.60
2022-10-26T08:30:08.223Z,12.70
2022-10-26T08:32:10.933Z,12.80
2022-10-26T08:34:13.742Z,12.80
2022-10-26T08:36:21.107Z,12.90
2022-10-26T08:38:25.371Z,12.90
2022-10-26T08:40:32.463Z,13.00
2022-10-26T08:42:42.018Z,13.00
2022-10-26T08:44:48.365Z,12.90
2022-10-26T08:46:55.458Z,12.90
2022-10-26T08:49:04.704Z,12.80
2022-10-26T08:51:13.464Z,12.70
2022-10-26T08:53:23.598Z,12.70
2022-10-26T08:55:33.620Z,12.70
2022-10-26T08:57:39.779Z,12.80
2022-10-26T08:59:48.786Z,12.90
2022-10-26T09:01:51.631Z,13.00
2022-10-26T09:03:54.348Z,13.10
2022-10-26T09:06:17.844Z,13.10
2022-10-26T09:08:32.210Z,13.20
2022-10-26T09:10:44.421Z,13.20
2022-10-26T09:12:51.014Z,13.20
2022-10-26T09:15:03.051Z,13.20
2022-10-26T09:17:14.120Z,13.20
2022-10-26T09:19:39.147Z,13.20
2022-10-26T09:21:46.477Z,13.30
2022-10-26T09:24:07.308Z,13.30
2022-10-26T09:26:15.858Z,13.30
2022-10-26T09:28:20.435Z,13.30
2022-10-26T09:30:23.786Z,13.30
2022-10-26T09:32:31.937Z,13.40
2022-10-26T09:34:41.019Z,13.50
2022-10-26T09:36:43.724Z,13.60
2022-10-26T09:38:55.280Z,13.70
2022-10-26T09:41:02.928Z,13.80
2022-10-26T09:43:11.951Z,14.00
2022-10-26T09:45:18.917Z,14.10
2022-10-26T09:47:33.128Z,14.20
2022-10-26T09:49:42.171Z,14.30
2022-10-26T09:51:46.391Z,14.40
2022-10-26T09:53:49.800Z,14.50
2022-10-26T09:56:00.911Z,14.60
2022-10-26T09:58:07.878Z,14.70
2022-10-26T10:00:16.723Z,14.80
2022-10-26T10:02:39.805Z,14.90
2022-10-26T10:04:47.944Z,14.80
2022-10-26T10:06:53.286Z,14.80
2022-10-26T10:09:07.247Z,14.80
2022-10-26T10:11:12.601Z,14.80
2022-10-26T10:13:17.087Z,14.80
2022-10-26T10:15:23.910Z,14.90
2022-10-26T10:17:27.383Z,15.10
2022-10-26T10:19:32.210Z,15.30
2022-10-26T10:21:39.164Z,15.50
2022-10-26T10:23:51.870Z,15.60
2022-10-26T10:26:01.264Z,15.70
2022-10-26T10:30:33.259Z,15.80
2022-10-26T10:32:39.136Z,15.80
2022-10-26T10:34:44.160Z,15.80
2022-10-26T10:36:47.386Z,15.90
2022-10-26T10:38:55.569Z,15.90
2022-10-26T10:41:03.341Z,16.00
2022-10-26T10:43:12.165Z,16.00
2022-10-26T10:45:22.317Z,16.10
2022-10-26T10:47:29.741Z,16.10
2022-10-26T10:49:33.463Z,16.10
2022-10-26T10:51:41.023Z,16.10
2022-10-26T10:53:48.267Z,16.20
2022-10-26T10:56:03.690Z,16.30
2022-10-26T10:58:18.659Z,16.30
2022-10-26T11:00:26.137Z,16.40
2022-10-26T11:03:16.474Z,16.40
2022-10-26T11:05:27.750Z,16.40
2022-10-26T11:07:33.431Z,16.40
2022-10-26T11:09:41.110Z,16.40
2022-10-26T11:11:47.883Z,16.40
2022-10-26T11:13:57.315Z,16.40
2022-10-26T11:16:04.045Z,16.40
2022-10-26T11:18:15.105Z,16.50
2022-10-26T11:20:21.827Z,16.50
2022-10-26T11:22:27.254Z,16.70
2022-10-26T11:24:34.980Z,16.80
2022-10-26T11:26:45.971Z,17.00
2022-10-26T11:28:54.399Z,17.30
2022-10-26T11:31:02.426Z,17.50
2022-10-26T11:33:12.703Z,17.70
2022-10-26T11:35:19.051Z,17.80
2022-10-26T11:37:27.943Z,17.60
2022-10-26T11:39:39.723Z,17.40
2022-10-26T11:41:49.031Z,17.20
2022-10-26T11:43:58.143Z,17.00
2022-10-26T11:46:05.980Z,16.80
2022-10-26T11:48:18.009Z,16.70
2022-10-26T11:50:24.497Z,16.60
2022-10-26T11:52:34.507Z,16.50
2022-10-26T11:54:41.504Z,16.50
2022-10-26T11:56:49.534Z,16.50
2022-10-26T11:58:53.133Z,16.50
2022-10-26T12:01:02.154Z,16.50
2022-10-26T12:03:10.024Z,16.50
2022-10-26T12:05:21.286Z,16.50
2022-10-26T12:07:28.174Z,16.50
2022-10-26T12:09:35.868Z,16.50
2022-10-26T12:11:45.151Z,16.60
2022-10-26T12:13:53.423Z,16.50
2022-10-26T12:16:03.858Z,16.60
2022-10-26T12:18:20.314Z,16.60
2022-10-26T12:20:53.995Z,16.70
2022-10-26T12:22:56.719Z,16.70
2022-10-26T12:25:19.941Z,16.80
2022-10-26T12:27:33.759Z,17.00
2022-10-26T12:30:12.487Z,17.10
2022-10-26T12:32:49.192Z,17.20
2022-10-26T12:35:02.827Z,17.30
2022-10-26T12:37:25.315Z,17.40
2022-10-26T12:39:29.927Z,17.50
2022-10-26T12:41:38.525Z,17.50
2022-10-26T12:43:42.200Z,17.60
2022-10-26T12:45:46.609Z,17.60
2022-10-26T12:48:34.779Z,17.60
2022-10-26T12:50:41.478Z,17.60
2022-10-26T12:52:52.720Z,17.50
2022-10-26T12:55:21.051Z,17.50
2022-10-26T12:57:29.629Z,17.50
2022-10-26T12:59:40.460Z,17.40
2022-10-26T13:02:12.764Z,17.40
2022-10-26T13:04:26.963Z,17.40
2022-10-26T13:06:46.920Z,17.50
2022-10-26T13:08:57.818Z,17.50
2022-10-26T13:11:08.437Z,17.50
2022-10-26T13:13:24.505Z,17.60
2022-10-26T13:15:29.611Z,17.60
2022-10-26T13:19:45.807Z,17.60
2022-10-26T13:21:50.491Z,17.50
2022-10-26T13:24:02.127Z,17.50
2022-10-26T13:26:09.292Z,17.50
2022-10-26T13:28:35.508Z,17.50
2022-10-26T13:30:47.151Z,17.60
2022-10-26T13:32:53.653Z,17.70
2022-10-26T13:34:58.362Z,17.70
2022-10-26T13:37:08.160Z,17.80
2022-10-26T13:39:18.120Z,17.90
2022-10-26T13:41:39.757Z,18.00
2022-10-26T13:43:44.010Z,18.10
2022-10-26T13:45:54.037Z,18.20
2022-10-26T13:48:02.378Z,18.20
2022-10-26T13:50:08.594Z,18.20
2022-10-26T13:52:17.626Z,18.20
2022-10-26T13:54:27.934Z,18.20
2022-10-26T13:56:34.256Z,18.20
2022-10-26T13:58:44.174Z,18.20
2022-10-26T14:01:05.139Z,18.20
2022-10-26T14:03:15.697Z,18.20
2022-10-26T14:05:20.472Z,18.20
2022-10-26T14:07:27.524Z,18.20
2022-10-26T14:09:31.963Z,18.20
2022-10-26T14:11:37.803Z,18.20
2022-10-26T14:13:42.739Z,18.20
2022-10-26T14:15:46.936Z,18.20
2022-10-26T14:17:52.405Z,18.10
2022-10-26T14:19:55.636Z,18.20
2022-10-26T14:21:59.637Z,18.10
2022-10-26T14:24:07.484Z,18.10
2022-10-26T14:26:20.772Z,18.10
2022-10-26T14:28:25.273Z,18.10
2022-10-26T14:30:31.357Z,18.10
2022-10-26T14:32:36.522Z,18.20
2022-10-26T14:34:39.312Z,18.20
2022-10-26T14:36:46.555Z,18.20
2022-10-26T14:38:53.104Z,18.20
2022-10-26T14:40:57.407Z,18.30
2022-10-26T14:43:03.266Z,18.20
2022-10-26T14:45:09.402Z,18.20
2022-10-26T14:47:24.930Z,18.20
2022-10-26T14:49:29.168Z,18.20
2022-10-26T14:51:36.628Z,18.10
2022-10-26T14:53:41.701Z,18.10
2022-10-26T14:55:48.574Z,18.00
2022-10-26T14:57:54.801Z,18.00
2022-10-26T15:00:06.723Z,17.90
2022-10-26T15:02:17.720Z,17.90
2022-10-26T15:04:33.063Z,17.90
2022-10-26T15:06:41.541Z,17.90
2022-10-26T15:08:56.414Z,17.90
2022-10-26T15:11:08.110Z,17.80
2022-10-26T15:13:19.584Z,17.80
2022-10-26T15:15:24.846Z,17.80
2022-10-26T15:17:35.004Z,17.80
2022-10-26T15:19:39.908Z,17.70
2022-10-26T15:21:48.280Z,17.70
2022-10-26T15:23:51.429Z,17.60
2022-10-26T15:25:57.137Z,17.60
2022-10-26T15:28:10.724Z,17.50
2022-10-26T15:30:21.048Z,17.40
2022-10-26T15:32:33.503Z,17.40
2022-10-26T15:34:36.213Z,17.30
2022-10-26T15:36:40.270Z,17.30
2022-10-26T15:38:44.513Z,17.20
2022-10-26T15:40:47.200Z,17.10
2022-10-26T15:42:53.112Z,17.10
2022-10-26T15:44:56.130Z,17.00
2022-10-26T15:47:06.411Z,16.90
2022-10-26T15:49:18.295Z,16.90
2022-10-26T15:51:21.687Z,16.80
2022-10-26T15:53:27.374Z,16.70
2022-10-26T15:55:31.091Z,16.70
2022-10-26T15:57:33.795Z,16.60
2022-10-26T15:59:36.844Z,16.60
2022-10-26T16:01:39.637Z,16.50
2022-10-26T16:03:42.710Z,16.40
2022-10-26T16:05:47.000Z,16.30
2022-10-26T16:07:50.121Z,16.30
2022-10-26T16:09:53.209Z,16.20
2022-10-26T16:11:55.917Z,16.10
2022-10-26T16:14:02.637Z,16.00
2022-10-26T16:16:12.921Z,16.00
2022-10-26T16:18:16.071Z,15.90
2022-10-26T16:20:22.559Z,15.80
2022-10-26T16:22:26.759Z,15.80
2022-10-26T16:24:30.650Z,15.70
2022-10-26T16:26:33.372Z,15.70
2022-10-26T16:28:36.870Z,15.70
2022-10-26T16:32:44.015Z,15.50
2022-10-26T16:34:46.928Z,15.50
2022-10-26T16:36:49.915Z,15.40
2022-10-26T16:38:54.383Z,15.40
2022-10-26T16:41:02.635Z,15.30
2022-10-26T16:43:05.580Z,15.30
2022-10-26T16:45:08.568Z,15.30
2022-10-26T16:47:11.373Z,15.30
2022-10-26T16:49:14.298Z,15.20
2022-10-26T16:51:18.903Z,15.10
2022-10-26T16:53:21.622Z,15.10
2022-10-26T16:55:25.617Z,15.00
2022-10-26T16:57:28.626Z,14.90
2022-10-26T16:59:31.819Z,14.90
2022-10-26T17:01:35.603Z,14.80
2022-10-26T17:03:38.622Z,14.80
2022-10-26T17:05:42.524Z,14.80
2022-10-26T17:07:47.193Z,14.80
2022-10-26T17:09:49.941Z,14.70
2022-10-26T17:11:58.312Z,14.70
2022-10-26T17:14:04.719Z,14.70
2022-10-26T17:16:10.706Z,14.70
2022-10-26T17:18:14.020Z,14.70
2022-10-26T17:20:17.532Z,14.60
2022-10-26T17:22:20.309Z,14.60
2022-10-26T17:24:23.296Z,14.60
2022-10-26T17:26:26.252Z,14.60
2022-10-26T17:28:30.482Z,14.50
2022-10-26T17:30:34.922Z,14.50
2022-10-26T17:32:37.716Z,14.50
2022-10-26T17:34:40.711Z,14.40
2022-10-26T17:36:43.422Z,14.40
2022-10-26T17:38:50.903Z,14.30
2022-10-26T17:40:53.588Z,14.20
2022-10-26T17:43:00.631Z,14.10
2022-10-26T17:45:05.303Z,14.00
2022-10-26T17:47:08.627Z,13.90
2022-10-26T17:49:11.356Z,13.80
2022-10-26T17:51:16.540Z,13.70
2022-10-26T17:53:19.239Z,13.70
2022-10-26T17:55:22.258Z,13.70
2022-10-26T17:57:24.932Z,13.60
2022-10-26T17:59:27.785Z,13.50
2022-10-26T18:01:32.835Z,13.40
2022-10-26T18:03:36.771Z,13.30
2022-10-26T18:05:39.464Z,13.30
2022-10-26T18:07:43.419Z,13.20
2022-10-26T18:09:46.119Z,13.20
2022-10-26T18:11:50.880Z,13.10
2022-10-26T18:13:57.166Z,13.00
2022-10-26T18:16:03.954Z,12.90
2022-10-26T18:18:08.020Z,12.90
2022-10-26T18:20:11.384Z,12.80
2022-10-26T18:22:14.030Z,12.80
2022-10-26T18:24:16.883Z,12.70
2022-10-26T18:26:22.110Z,12.60
2022-10-26T18:28:25.028Z,12.60
2022-10-26T18:30:27.756Z,12.60
2022-10-26T18:32:30.537Z,12.50
2022-10-26T18:34:35.015Z,12.50
2022-10-26T18:38:47.779Z,12.40
2022-10-26T18:40:53.616Z,12.40
2022-10-26T18:42:56.877Z,12.30
2022-10-26T18:45:02.558Z,12.30
2022-10-26T18:47:05.417Z,12.30
2022-10-26T18:49:08.208Z,12.30
2022-10-26T18:51:14.975Z,12.30
2022-10-26T18:55:25.360Z,12.20
2022-10-26T18:57:28.935Z,12.10
2022-10-26T18:59:31.649Z,12.10
2022-10-26T19:01:36.559Z,12.00
2022-10-26T19:03:41.749Z,12.00
2022-10-26T19:05:44.484Z,11.90
2022-10-26T19:07:48.538Z,11.90
2022-10-26T19:09:51.499Z,11.90
2022-10-26T19:11:54.234Z,11.80
2022-10-26T19:13:57.534Z,11.80
2022-10-26T19:16:01.244Z,11.80
2022-10-26T19:18:04.281Z,11.80
2022-10-26T19:20:07.845Z,11.70
2022-10-26T19:22:12.349Z,11.70
2022-10-26T19:24:19.148Z,11.70
2022-10-26T19:26:24.540Z,11.70
2022-10-26T19:28:27.364Z,11.60
2022-10-26T19:30:30.104Z,11.60
2022-10-26T19:32:32.826Z,11.60
2022-10-26T19:34:35.651Z,11.60
2022-10-26T19:36:39.393Z,11.60
2022-10-26T19:38:42.228Z,11.60
2022-10-26T19:40:46.328Z,11.70
2022-10-26T19:42:49.072Z,11.70
2022-10-26T19:44:51.846Z,11.70
2022-10-26T19:46:54.636Z,11.70
2022-10-26T19:48:59.371Z,11.70
2022-10-26T19:51:02.423Z,11.70
2022-10-26T19:53:05.151Z,11.70
2022-10-26T19:55:08.717Z,11.60
2022-10-26T19:57:12.855Z,11.60
2022-10-26T19:59:15.781Z,11.60
2022-10-26T20:01:18.810Z,11.60
2022-10-26T20:03:21.595Z,11.60
2022-10-26T20:05:24.404Z,11.50
2022-10-26T20:07:27.145Z,11.50
2022-10-26T20:09:29.885Z,11.40
2022-10-26T20:11:35.016Z,11.40
2022-10-26T20:13:39.590Z,11.40
2022-10-26T20:15:42.865Z,11.30
2022-10-26T20:17:45.617Z,11.30
2022-10-26T20:19:48.491Z,11.30
2022-10-26T20:21:51.229Z,11.30
2022-10-26T20:23:53.981Z,11.30
2022-10-26T20:26:00.165Z,11.30
2022-10-26T20:28:03.216Z,11.20
2022-10-26T20:30:08.868Z,11.20
2022-10-26T20:32:15.069Z,11.20
2022-10-26T20:34:17.836Z,11.10
2022-10-26T20:36:21.057Z,11.10
2022-10-26T20:38:24.372Z,11.00
2022-10-26T20:40:28.780Z,11.00
2022-10-26T20:42:31.990Z,10.90
2022-10-26T20:44:40.878Z,10.90
2022-10-26T20:46:45.859Z,10.80
2022-10-26T20:48:49.239Z,10.80
2022-10-26T20:50:55.638Z,10.80
2022-10-26T20:53:03.819Z,10.80
2022-10-26T20:55:14.937Z,10.70
2022-10-26T20:57:23.745Z,10.70
2022-10-26T20:59:31.564Z,10.60
2022-10-26T21:01:37.987Z,10.60
2022-10-26T21:03:42.130Z,10.60
2022-10-26T21:05:47.732Z,10.60
2022-10-26T21:07:51.210Z,10.60
2022-10-26T21:09:54.073Z,10.60
2022-10-26T21:11:58.253Z,10.60
2022-10-26T21:14:03.147Z,10.60
2022-10-26T21:16:06.937Z,10.60
2022-10-26T21:18:09.961Z,10.60
2022-10-26T21:20:14.111Z,10.60
2022-10-26T21:22:16.881Z,10.60
2022-10-26T21:24:19.567Z,10.60
2022-10-26T21:26:22.488Z,10.60
2022-10-26T21:28:25.806Z,10.60
2022-10-26T21:30:28.693Z,10.50
2022-10-26T21:32:31.397Z,10.50
2022-10-26T21:34:34.199Z,10.50
2022-10-26T21:36:38.267Z,10.40
2022-10-26T21:38:42.506Z,10.50
2022-10-26T21:40:45.196Z,10.40
2022-10-26T21:42:50.809Z,10.40
2022-10-26T21:44:53.940Z,10.40
2022-10-26T21:46:56.631Z,10.40
2022-10-26T21:48:59.299Z,10.40
2022-10-26T21:51:02.959Z,10.40
2022-10-26T21:53:07.175Z,10.40
2022-10-26T21:55:12.327Z,10.40
2022-10-26T21:57:16.159Z,10.40
2022-10-26T21:59:18.867Z,10.30
2022-10-26T22:01:23.507Z,10.30
2022-10-26T22:03:26.597Z,10.20
2022-10-26T22:05:29.827Z,10.20
2022-10-26T22:07:32.500Z,10.20
2022-10-26T22:09:44.876Z,10.10
2022-10-26T22:11:59.400Z,10.10
2022-10-26T22:14:02.169Z,10.00
2022-10-26T22:16:07.687Z,10.10
2022-10-26T22:18:10.383Z,10.00
2022-10-26T22:20:13.622Z,10.00
2022-10-26T22:22:16.491Z,10.00
2022-10-26T22:24:19.173Z,10.00
2022-10-26T22:26:24.819Z,9.90
2022-10-26T22:28:27.540Z,9.90
2022-10-26T22:30:30.304Z,9.90
2022-10-26T22:32:33.006Z,9.90
2022-10-26T22:34:35.695Z,9.90
2022-10-26T22:36:38.399Z,9.90
2022-10-26T22:38:41.979Z,9.90
2022-10-26T22:40:44.666Z,9.90
2022-10-26T22:42:51.892Z,9.90
2022-10-26T22:44:55.355Z,9.90
2022-10-26T22:46:59.474Z,9.90
2022-10-26T22:49:03.380Z,9.90
2022-10-26T22:51:07.384Z,9.90
2022-10-26T22:53:10.597Z,9.90
2022-10-26T22:55:13.260Z,9.90
2022-10-26T22:57:15.920Z,10.00
2022-10-26T22:59:20.298Z,10.00
2022-10-26T23:01:25.123Z,10.00
2022-10-26T23:03:29.074Z,10.00
2022-10-26T23:05:31.912Z,10.00
2022-10-26T23:07:34.792Z,10.00
2022-10-26T23:09:37.696Z,9.90
2022-10-26T23:11:40.410Z,9.90
2022-10-26T23:13:43.765Z,9.90
2022-10-26T23:15:48.083Z,9.80
2022-10-26T23:17:51.261Z,9.80
2022-10-26T23:19:54.096Z,9.80
2022-10-26T23:21:56.821Z,9.70
2022-10-26T23:23:59.536Z,9.70
2022-10-26T23:26:02.824Z,9.70
2022-10-26T23:28:06.091Z,9.60
2022-10-26T23:30:10.176Z,9.60
2022-10-26T23:32:14.428Z,9.60
2022-10-26T23:34:17.119Z,9.60
2022-10-26T23:36:20.268Z,9.50
2022-10-26T23:38:23.019Z,9.50
2022-10-26T23:40:25.879Z,9.50
2022-10-26T23:42:29.107Z,9.50
2022-10-26T23:44:31.792Z,9.50
2022-10-26T23:46:34.808Z,9.40
2022-10-26T23:48:39.038Z,9.40
2022-10-26T23:50:43.075Z,9.40
2022-10-26T23:52:48.927Z,9.40
2022-10-26T23:54:51.623Z,9.40
2022-10-26T23:56:54.546Z,9.40
2022-10-26T23:58:57.243Z,9.40
